KELM/ELM METAR and TAF weather

Enter ICAO airport designator
Station Type Date Time Source
KELM METAR 2022/06/28 07:53 UTC NOAA

KELM 280753Z AUTO 27003KT 10SM CLR 12/09 A3014 RMK AO2 SLP204 T01170094


Station Type Date Time Source
KELM Decoded METAR 2022/06/28 07:53 UTC NOAA

ELMIRA COUNTY AIRPORT, NY, United States (KELM) 42-10N 76-54W 302M
Jun 28, 2022 - 03:53 AM EDT / 2022.06.28 0753 UTC
Wind: from the W (270 degrees) at 3 MPH (3 KT):0
Visibility: 10 mile(s):0
Sky conditions: clear
Temperature: 53.1 F (11.7 C)
Dew Point: 48.9 F (9.4 C)
Relative Humidity: 85%
Pressure (altimeter): 30.14 in. Hg (1020 hPa)
ob: KELM 280753Z AUTO 27003KT 10SM CLR 12/09 A3014 RMK AO2 SLP204 T01170094
cycle: 8

Station Type Date Time Source
KELM TAF 2022/06/28 09:59 UTC NOAA

TAF
AMD KELM 280859Z 2809/2906 30003KT P6SM FEW150
FM281300 31008KT P6SM SCT060

Example: see airport list